createdAt,value
2017-12-26T00:02:02.106Z,99.90
2017-12-26T00:04:28.434Z,99.90
2017-12-26T00:06:54.803Z,99.90
2017-12-26T00:09:21.135Z,99.90
2017-12-26T00:11:47.471Z,99.90
2017-12-26T00:14:13.818Z,99.90
2017-12-26T00:16:40.155Z,99.90
2017-12-26T00:19:06.487Z,99.90
2017-12-26T00:21:32.874Z,99.90
2017-12-26T00:23:59.234Z,99.90
2017-12-26T00:26:26.621Z,99.90
2017-12-26T00:28:52.977Z,99.90
2017-12-26T00:31:20.079Z,99.90
2017-12-26T00:33:46.411Z,99.90
2017-12-26T00:36:12.758Z,99.90
2017-12-26T00:38:39.087Z,99.90
2017-12-26T00:41:05.444Z,99.90
2017-12-26T00:43:32.550Z,99.90
2017-12-26T00:45:58.894Z,99.90
2017-12-26T00:48:25.246Z,99.90
2017-12-26T00:50:52.338Z,99.90
2017-12-26T00:53:18.680Z,99.90
2017-12-26T00:55:45.026Z,99.90
2017-12-26T00:58:11.367Z,99.90
2017-12-26T01:00:37.718Z,99.90
2017-12-26T01:03:04.055Z,99.90
2017-12-26T01:05:31.139Z,99.90
2017-12-26T01:07:57.486Z,99.90
2017-12-26T01:10:23.842Z,99.90
2017-12-26T01:12:50.190Z,99.90
2017-12-26T01:15:16.523Z,99.90
2017-12-26T01:17:42.874Z,99.90
2017-12-26T01:20:09.981Z,99.90
2017-12-26T01:22:36.326Z,99.90
2017-12-26T01:25:02.703Z,99.90
2017-12-26T01:27:29.057Z,99.90
2017-12-26T01:29:55.430Z,99.90
2017-12-26T01:32:21.777Z,99.90
2017-12-26T01:34:48.890Z,99.90
2017-12-26T01:37:15.222Z,99.90
2017-12-26T01:39:41.581Z,99.90
2017-12-26T01:42:07.922Z,99.90
2017-12-26T01:44:34.994Z,99.90
2017-12-26T01:47:01.346Z,99.90
2017-12-26T01:49:27.680Z,99.90
2017-12-26T01:51:54.076Z,99.90
2017-12-26T01:54:21.142Z,99.90
2017-12-26T01:56:47.494Z,99.90
2017-12-26T01:59:13.839Z,99.90
2017-12-26T02:01:40.179Z,99.90
2017-12-26T02:04:06.527Z,99.90
2017-12-26T02:06:32.866Z,99.90
2017-12-26T02:09:00.006Z,99.90
2017-12-26T02:11:26.335Z,99.90
2017-12-26T02:13:52.650Z,99.90
2017-12-26T02:16:18.974Z,99.90
2017-12-26T02:18:45.302Z,99.90
2017-12-26T02:21:11.650Z,99.90
2017-12-26T02:23:37.978Z,99.90
2017-12-26T02:26:04.403Z,99.90
2017-12-26T02:28:30.755Z,99.90
2017-12-26T02:30:57.086Z,99.90
2017-12-26T02:33:23.468Z,99.90
2017-12-26T02:35:49.803Z,99.90
2017-12-26T02:38:16.154Z,99.90
2017-12-26T02:40:43.255Z,99.90
2017-12-26T02:43:09.616Z,99.90
2017-12-26T02:45:36.780Z,99.90
2017-12-26T02:48:03.132Z,99.90
2017-12-26T02:50:30.486Z,99.90
2017-12-26T02:52:56.828Z,99.90
2017-12-26T02:55:23.171Z,99.90
2017-12-26T02:57:49.504Z,99.90
2017-12-26T03:00:15.823Z,99.90
2017-12-26T03:02:42.147Z,99.90
2017-12-26T03:05:08.475Z,99.90
2017-12-26T03:07:34.806Z,99.90
2017-12-26T03:10:01.135Z,99.90
2017-12-26T03:12:27.463Z,99.90
2017-12-26T03:14:53.818Z,99.90
2017-12-26T03:17:20.162Z,99.90
2017-12-26T03:19:46.491Z,99.90
2017-12-26T03:22:12.835Z,99.90
2017-12-26T03:24:39.162Z,99.90
2017-12-26T03:27:05.521Z,99.90
2017-12-26T03:29:32.682Z,99.90
2017-12-26T03:31:59.020Z,99.90
2017-12-26T03:34:25.403Z,99.90
2017-12-26T03:36:51.746Z,99.90
2017-12-26T03:39:18.815Z,99.90
2017-12-26T03:41:45.174Z,99.90
2017-12-26T03:44:11.548Z,99.90
2017-12-26T03:46:38.904Z,99.90
2017-12-26T03:49:05.547Z,99.90
2017-12-26T03:51:31.924Z,99.90
2017-12-26T03:53:58.306Z,99.90
2017-12-26T03:56:24.686Z,99.90
2017-12-26T03:58:51.122Z,99.90
2017-12-26T04:01:17.486Z,99.90
2017-12-26T04:03:43.842Z,99.90
2017-12-26T04:06:10.211Z,99.90
2017-12-26T04:08:37.575Z,99.90
2017-12-26T04:11:03.959Z,99.90
2017-12-26T04:13:30.331Z,99.90
2017-12-26T04:15:56.698Z,99.90
2017-12-26T04:18:23.074Z,99.90
2017-12-26T04:20:50.188Z,99.90
2017-12-26T04:23:16.542Z,99.90
2017-12-26T04:25:42.893Z,99.90
2017-12-26T04:28:09.980Z,99.90
2017-12-26T04:30:36.370Z,99.90
2017-12-26T04:33:03.461Z,99.90
2017-12-26T04:35:29.822Z,99.90
2017-12-26T04:37:56.190Z,99.90
2017-12-26T04:40:23.307Z,99.90
2017-12-26T04:42:49.663Z,99.90
2017-12-26T04:45:16.783Z,99.90
2017-12-26T04:47:43.161Z,99.90
2017-12-26T04:50:10.270Z,99.90
2017-12-26T04:52:36.643Z,99.90
2017-12-26T04:55:03.731Z,99.90
2017-12-26T04:57:30.094Z,99.90
2017-12-26T04:59:57.182Z,99.90
2017-12-26T05:02:23.518Z,99.90
2017-12-26T05:04:49.883Z,99.90
2017-12-26T05:07:16.235Z,99.90
2017-12-26T05:09:42.647Z,99.90
2017-12-26T05:12:09.068Z,99.90
2017-12-26T05:14:36.341Z,99.90
2017-12-26T05:17:02.723Z,99.90
2017-12-26T05:19:29.826Z,99.90
2017-12-26T05:21:57.194Z,99.90
2017-12-26T05:24:23.555Z,99.90
2017-12-26T05:26:50.694Z,99.90
2017-12-26T05:29:17.805Z,99.90
2017-12-26T05:31:44.171Z,99.90
2017-12-26T05:34:10.573Z,99.90
2017-12-26T05:36:36.950Z,99.90
2017-12-26T05:39:04.080Z,99.90
2017-12-26T05:41:30.444Z,99.90
2017-12-26T05:43:56.832Z,99.90
2017-12-26T05:46:23.186Z,99.90
2017-12-26T05:48:50.310Z,99.90
2017-12-26T05:51:16.692Z,99.90
2017-12-26T05:53:43.064Z,99.90
2017-12-26T05:56:09.423Z,99.90
2017-12-26T05:58:35.791Z,99.90
2017-12-26T06:01:03.170Z,99.90
2017-12-26T06:03:29.542Z,99.90
2017-12-26T06:05:55.922Z,99.90
2017-12-26T06:08:22.291Z,99.90
2017-12-26T06:10:48.663Z,99.90
2017-12-26T06:13:15.771Z,99.90
2017-12-26T06:15:42.146Z,99.90
2017-12-26T06:18:10.250Z,99.90
2017-12-26T06:20:36.606Z,99.90
2017-12-26T06:23:03.032Z,99.90
2017-12-26T06:25:29.399Z,99.90
2017-12-26T06:27:55.761Z,99.90
2017-12-26T06:30:22.139Z,99.90
2017-12-26T06:32:48.514Z,99.90
2017-12-26T06:35:14.905Z,99.90
2017-12-26T06:37:41.290Z,99.90
2017-12-26T06:40:07.675Z,99.90
2017-12-26T06:42:34.043Z,99.90
2017-12-26T06:45:02.171Z,99.90
2017-12-26T06:47:28.555Z,99.90
2017-12-26T06:49:55.681Z,99.90
2017-12-26T06:52:22.127Z,99.90
2017-12-26T06:54:48.556Z,99.90
2017-12-26T06:57:14.927Z,99.90
2017-12-26T06:59:41.298Z,99.90
2017-12-26T07:02:07.726Z,99.90
2017-12-26T07:04:34.111Z,99.90
2017-12-26T07:07:00.548Z,99.90
2017-12-26T07:09:26.924Z,99.90
2017-12-26T07:11:53.319Z,99.90
2017-12-26T07:14:19.706Z,99.90
2017-12-26T07:16:46.102Z,99.90
2017-12-26T07:19:13.562Z,99.90
2017-12-26T07:21:46.089Z,99.90
2017-12-26T07:24:12.439Z,99.90
2017-12-26T07:26:38.846Z,99.90
2017-12-26T07:29:05.217Z,99.90
2017-12-26T07:31:31.827Z,99.90
2017-12-26T07:33:59.459Z,99.90
2017-12-26T07:36:25.846Z,99.90
2017-12-26T07:38:52.339Z,99.90
2017-12-26T07:41:18.796Z,99.90
2017-12-26T07:43:45.235Z,99.90
2017-12-26T07:46:12.368Z,99.90
2017-12-26T07:48:38.774Z,99.90
2017-12-26T07:51:05.131Z,99.90
2017-12-26T07:53:31.518Z,99.90
2017-12-26T07:55:57.902Z,99.90
2017-12-26T07:58:24.270Z,99.90
2017-12-26T08:00:50.658Z,99.90
2017-12-26T08:03:17.082Z,99.90
2017-12-26T08:05:43.629Z,99.90
2017-12-26T08:08:10.012Z,99.90
2017-12-26T08:10:36.399Z,99.90
2017-12-26T08:13:02.799Z,99.90
2017-12-26T08:15:29.190Z,99.90
2017-12-26T08:17:56.309Z,99.90
2017-12-26T08:20:22.674Z,99.90
2017-12-26T08:22:49.095Z,99.90
2017-12-26T08:25:16.247Z,99.90
2017-12-26T08:27:43.358Z,99.90
2017-12-26T08:30:09.782Z,99.90
2017-12-26T08:32:36.151Z,99.90
2017-12-26T08:35:02.560Z,99.90
2017-12-26T08:37:28.938Z,99.90
2017-12-26T08:39:56.067Z,99.90
2017-12-26T08:42:31.075Z,99.90
2017-12-26T08:44:57.470Z,99.90
2017-12-26T08:47:23.835Z,99.90
2017-12-26T08:49:50.258Z,99.90
2017-12-26T08:52:16.640Z,99.90
2017-12-26T08:54:43.766Z,99.90
2017-12-26T08:57:10.179Z,99.90
2017-12-26T08:59:36.551Z,99.90
2017-12-26T09:02:02.943Z,99.10
2017-12-26T09:04:29.338Z,97.80
2017-12-26T09:06:55.728Z,97.40
2017-12-26T09:09:22.103Z,96.50
2017-12-26T09:11:48.487Z,95.80
2017-12-26T09:14:14.885Z,95.30
2017-12-26T09:16:42.383Z,94.60
2017-12-26T09:19:08.755Z,94.30
2017-12-26T09:21:35.896Z,92.70
2017-12-26T09:24:04.108Z,91.50
2017-12-26T09:26:30.535Z,91.40
2017-12-26T09:28:56.911Z,91.50
2017-12-26T09:31:23.304Z,91.80
2017-12-26T09:33:49.703Z,89.10
2017-12-26T09:36:16.839Z,85.40
2017-12-26T09:38:43.231Z,85.50
2017-12-26T09:41:09.677Z,84.20
2017-12-26T09:43:36.059Z,83.40
2017-12-26T09:46:03.241Z,80.30
2017-12-26T09:48:29.615Z,80.30
2017-12-26T09:50:55.994Z,80.20
2017-12-26T09:53:22.374Z,79.90
2017-12-26T09:55:48.761Z,80.00
2017-12-26T09:58:15.143Z,78.60
2017-12-26T10:00:41.570Z,78.30
2017-12-26T10:03:07.947Z,77.80
2017-12-26T10:05:35.078Z,76.60
2017-12-26T10:08:01.483Z,76.50
2017-12-26T10:10:27.862Z,74.90
2017-12-26T10:12:54.242Z,73.80
2017-12-26T10:15:20.661Z,73.30
2017-12-26T10:17:47.043Z,73.70
2017-12-26T10:20:13.435Z,75.80
2017-12-26T10:22:39.809Z,74.40
2017-12-26T10:25:06.191Z,73.20
2017-12-26T10:27:32.570Z,71.00
2017-12-26T10:29:58.982Z,71.60
2017-12-26T10:32:25.376Z,72.20
2017-12-26T10:34:51.765Z,73.00
2017-12-26T10:37:18.143Z,70.90
2017-12-26T10:39:44.500Z,68.50
2017-12-26T10:42:10.907Z,70.20
2017-12-26T10:44:37.260Z,69.10
2017-12-26T10:47:03.627Z,68.00
2017-12-26T10:49:29.995Z,67.90
2017-12-26T10:51:56.360Z,66.60
2017-12-26T10:54:22.725Z,68.60
2017-12-26T10:56:49.110Z,65.60
2017-12-26T10:59:15.682Z,65.60
2017-12-26T11:01:42.083Z,65.20
2017-12-26T11:04:08.452Z,65.00
2017-12-26T11:06:34.819Z,66.20
2017-12-26T11:09:01.203Z,68.40
2017-12-26T11:11:27.590Z,69.10
2017-12-26T11:13:53.970Z,70.50
2017-12-26T11:16:20.339Z,70.50
2017-12-26T11:18:47.442Z,69.30
2017-12-26T11:21:14.804Z,69.40
2017-12-26T11:23:41.179Z,69.90
2017-12-26T11:26:08.292Z,68.90
2017-12-26T11:28:34.672Z,68.90
2017-12-26T11:31:01.078Z,70.80
2017-12-26T11:33:28.176Z,71.30
2017-12-26T11:35:54.575Z,71.30
2017-12-26T11:38:21.687Z,70.20
2017-12-26T11:40:48.062Z,70.30
2017-12-26T11:43:15.175Z,69.70
2017-12-26T11:45:41.579Z,69.60
2017-12-26T11:48:08.683Z,65.60
2017-12-26T11:50:35.793Z,67.70
2017-12-26T11:53:02.182Z,67.50
2017-12-26T11:55:28.566Z,67.30
2017-12-26T11:57:54.971Z,65.60
2017-12-26T12:00:21.390Z,65.80
2017-12-26T12:02:47.771Z,66.10
2017-12-26T12:05:14.160Z,66.00
2017-12-26T12:07:40.550Z,68.20
2017-12-26T12:10:06.975Z,69.00
2017-12-26T12:12:33.583Z,66.30
2017-12-26T12:15:00.007Z,66.90
2017-12-26T12:17:26.409Z,68.50
2017-12-26T12:19:53.610Z,69.70
2017-12-26T12:22:20.047Z,69.00
2017-12-26T12:24:46.421Z,69.00
2017-12-26T12:27:13.542Z,69.80
2017-12-26T12:29:39.989Z,69.80
2017-12-26T12:32:06.371Z,69.20
2017-12-26T12:34:32.759Z,68.40
2017-12-26T12:36:59.964Z,70.00
2017-12-26T12:39:27.261Z,70.10
2017-12-26T12:41:53.728Z,70.30
2017-12-26T12:44:20.123Z,68.60
2017-12-26T12:46:46.551Z,67.90
2017-12-26T12:49:12.900Z,67.20
2017-12-26T12:51:39.266Z,67.50
2017-12-26T12:54:05.643Z,67.50
2017-12-26T12:56:32.139Z,67.40
2017-12-26T12:58:58.518Z,68.30
2017-12-26T13:01:24.947Z,69.70
2017-12-26T13:03:52.351Z,71.40
2017-12-26T13:06:18.727Z,72.00
2017-12-26T13:08:46.168Z,72.60
2017-12-26T13:11:14.160Z,73.30
2017-12-26T13:13:41.165Z,74.40
2017-12-26T13:16:07.801Z,74.30
2017-12-26T13:18:35.057Z,74.50
2017-12-26T13:21:01.797Z,74.50
2017-12-26T13:23:28.321Z,76.40
2017-12-26T13:25:54.752Z,76.30
2017-12-26T13:28:21.964Z,80.10
2017-12-26T13:30:49.641Z,80.10
2017-12-26T13:33:16.027Z,84.90
2017-12-26T13:35:43.142Z,87.10
2017-12-26T13:38:10.583Z,87.00
2017-12-26T13:40:37.011Z,86.90
2017-12-26T13:43:03.376Z,86.60
2017-12-26T13:45:30.685Z,85.90
2017-12-26T13:47:57.057Z,85.90
2017-12-26T13:50:23.586Z,83.30
2017-12-26T13:52:50.735Z,80.30
2017-12-26T13:55:17.229Z,80.40
2017-12-26T13:57:44.299Z,77.80
2017-12-26T14:00:11.974Z,78.60
2017-12-26T14:02:38.355Z,77.00
2017-12-26T14:05:04.729Z,76.70
2017-12-26T14:07:31.131Z,76.20
2017-12-26T14:09:57.507Z,75.20
2017-12-26T14:12:23.920Z,74.50
2017-12-26T14:14:50.395Z,74.70
2017-12-26T14:17:17.499Z,75.50
2017-12-26T14:19:44.878Z,74.90
2017-12-26T14:22:12.291Z,76.10
2017-12-26T14:24:38.695Z,76.10
2017-12-26T14:27:05.847Z,78.40
2017-12-26T14:29:33.072Z,79.70
2017-12-26T14:31:59.439Z,79.70
2017-12-26T14:34:25.870Z,81.70
2017-12-26T14:36:52.943Z,85.20
2017-12-26T14:39:19.311Z,85.20
2017-12-26T14:41:45.698Z,86.70
2017-12-26T14:44:12.079Z,87.70
2017-12-26T14:46:38.466Z,89.10
2017-12-26T14:49:04.808Z,90.30
2017-12-26T14:51:31.917Z,91.10
2017-12-26T14:53:59.042Z,91.10
2017-12-26T14:56:25.391Z,91.10
2017-12-26T14:58:51.775Z,91.00
2017-12-26T15:01:18.134Z,91.70
2017-12-26T15:03:44.505Z,92.10
2017-12-26T15:06:11.638Z,93.40
2017-12-26T15:08:38.017Z,93.40
2017-12-26T15:11:04.386Z,93.80
2017-12-26T15:13:30.740Z,93.80
2017-12-26T15:15:57.840Z,95.30
2017-12-26T15:18:25.084Z,95.30
2017-12-26T15:20:51.463Z,96.90
2017-12-26T15:23:17.838Z,98.00
2017-12-26T15:25:44.180Z,98.80
2017-12-26T15:28:10.603Z,99.90
2017-12-26T15:30:36.998Z,99.90
2017-12-26T15:33:03.351Z,99.90
2017-12-26T15:35:30.427Z,99.90
2017-12-26T15:37:56.803Z,99.90
2017-12-26T15:40:23.166Z,99.90
2017-12-26T15:42:50.275Z,99.90
2017-12-26T15:45:17.630Z,99.90
2017-12-26T15:47:43.982Z,99.90
2017-12-26T15:50:10.344Z,99.90
2017-12-26T15:52:36.670Z,99.90
2017-12-26T15:55:03.017Z,99.90
2017-12-26T15:57:29.375Z,99.90
2017-12-26T15:59:55.720Z,99.90
2017-12-26T16:02:22.074Z,99.90
2017-12-26T16:04:48.445Z,99.90
2017-12-26T16:07:14.819Z,99.90
2017-12-26T16:09:41.190Z,99.90
2017-12-26T16:12:09.379Z,99.90
2017-12-26T16:14:36.477Z,99.90
2017-12-26T16:17:02.926Z,99.90
2017-12-26T16:19:29.322Z,99.90
2017-12-26T16:21:55.655Z,99.90
2017-12-26T16:24:22.030Z,99.90
2017-12-26T16:26:49.157Z,99.90
2017-12-26T16:29:15.556Z,99.90
2017-12-26T16:31:41.993Z,99.90
2017-12-26T16:34:08.344Z,99.90
2017-12-26T16:36:34.707Z,99.90
2017-12-26T16:39:01.879Z,99.90
2017-12-26T16:41:28.969Z,99.90
2017-12-26T16:43:55.323Z,99.90
2017-12-26T16:46:21.692Z,99.90
2017-12-26T16:48:48.782Z,99.90
2017-12-26T16:51:15.119Z,99.90
2017-12-26T16:53:41.443Z,99.90
2017-12-26T16:56:07.802Z,99.90
2017-12-26T16:58:34.131Z,99.90
2017-12-26T17:01:00.545Z,99.90
2017-12-26T17:03:28.039Z,99.90
2017-12-26T17:05:54.389Z,99.90
2017-12-26T17:08:21.498Z,99.90
2017-12-26T17:10:47.836Z,99.90
2017-12-26T17:13:14.184Z,99.90
2017-12-26T17:15:40.587Z,99.90
2017-12-26T17:18:06.939Z,99.90
2017-12-26T17:20:33.291Z,99.90
2017-12-26T17:23:00.480Z,99.90
2017-12-26T17:25:26.826Z,99.90
2017-12-26T17:27:53.170Z,99.90
2017-12-26T17:30:19.566Z,99.90
2017-12-26T17:32:45.902Z,99.90
2017-12-26T17:35:12.278Z,99.90
2017-12-26T17:37:38.646Z,99.90
2017-12-26T17:40:05.759Z,99.90
2017-12-26T17:42:32.100Z,99.90
2017-12-26T17:44:58.483Z,99.90
2017-12-26T17:47:24.835Z,99.90
2017-12-26T17:49:51.191Z,99.90
2017-12-26T17:52:17.534Z,99.90
2017-12-26T17:54:43.871Z,99.90
2017-12-26T17:57:10.208Z,99.90
2017-12-26T17:59:37.495Z,99.90
2017-12-26T18:02:04.859Z,99.90
2017-12-26T18:04:31.194Z,99.90
2017-12-26T18:06:57.573Z,99.90
2017-12-26T18:09:23.956Z,99.90
2017-12-26T18:11:50.295Z,99.90
2017-12-26T18:14:16.634Z,99.90
2017-12-26T18:16:43.019Z,99.90
2017-12-26T18:19:10.095Z,99.90
2017-12-26T18:21:36.469Z,99.90
2017-12-26T18:24:02.891Z,99.90
2017-12-26T18:26:29.266Z,99.90
2017-12-26T18:31:22.954Z,99.90
2017-12-26T18:33:50.091Z,99.90
2017-12-26T18:36:16.462Z,99.90
2017-12-26T18:38:42.799Z,99.90
2017-12-26T18:41:09.199Z,99.90
2017-12-26T18:43:36.317Z,99.90
2017-12-26T18:46:02.715Z,99.90
2017-12-26T18:48:29.078Z,99.90
2017-12-26T18:50:55.413Z,99.90
2017-12-26T18:53:21.775Z,99.90
2017-12-26T18:55:48.098Z,99.90
2017-12-26T18:58:14.503Z,99.90
2017-12-26T19:00:40.849Z,99.90
2017-12-26T19:03:07.190Z,99.90
2017-12-26T19:05:33.537Z,99.90
2017-12-26T19:08:00.678Z,99.90
2017-12-26T19:10:27.822Z,99.90
2017-12-26T19:12:54.171Z,99.90
2017-12-26T19:15:21.244Z,99.90
2017-12-26T19:17:47.582Z,99.90
2017-12-26T19:20:13.947Z,99.90
2017-12-26T19:22:40.290Z,99.90
2017-12-26T19:25:06.610Z,99.90
2017-12-26T19:27:32.971Z,99.90
2017-12-26T19:29:59.306Z,99.90
2017-12-26T19:32:26.385Z,99.90
2017-12-26T19:34:52.722Z,99.90
2017-12-26T19:37:19.049Z,99.90
2017-12-26T19:39:46.434Z,99.90
2017-12-26T19:42:12.781Z,99.90
2017-12-26T19:44:39.135Z,99.90
2017-12-26T19:47:05.490Z,99.90
2017-12-26T19:49:32.545Z,99.90
2017-12-26T19:51:59.011Z,99.90
2017-12-26T19:54:25.354Z,99.90
2017-12-26T19:56:52.041Z,99.90
2017-12-26T19:59:19.130Z,99.90
2017-12-26T20:01:45.580Z,99.90
2017-12-26T20:04:12.034Z,99.90
2017-12-26T20:06:38.392Z,99.90
2017-12-26T20:09:05.575Z,99.90
2017-12-26T20:11:32.050Z,99.90
2017-12-26T20:13:58.948Z,99.90
2017-12-26T20:16:25.374Z,99.90
2017-12-26T20:18:51.807Z,99.90
2017-12-26T20:21:18.144Z,99.90
2017-12-26T20:23:44.576Z,99.90
2017-12-26T20:26:10.888Z,99.90
2017-12-26T20:28:43.311Z,99.90
2017-12-26T20:31:09.641Z,99.90
2017-12-26T20:33:36.004Z,99.90
2017-12-26T20:36:02.384Z,99.90
2017-12-26T20:38:28.724Z,99.90
2017-12-26T20:40:55.074Z,99.90
2017-12-26T20:43:21.438Z,99.90
2017-12-26T20:45:48.550Z,99.90
2017-12-26T20:48:14.911Z,99.90
2017-12-26T20:50:41.251Z,99.90
2017-12-26T20:53:08.418Z,99.90
2017-12-26T20:55:35.513Z,99.90
2017-12-26T20:58:01.870Z,99.90
2017-12-26T21:00:28.274Z,99.90
2017-12-26T21:02:54.614Z,99.90
2017-12-26T21:05:20.991Z,99.90
2017-12-26T21:07:48.107Z,99.90
2017-12-26T21:10:14.458Z,99.90
2017-12-26T21:12:41.804Z,99.90
2017-12-26T21:15:08.190Z,99.90
2017-12-26T21:17:34.566Z,99.90
2017-12-26T21:20:00.930Z,99.90
2017-12-26T21:22:28.278Z,99.90
2017-12-26T21:24:56.491Z,99.90
2017-12-26T21:27:22.874Z,99.90
2017-12-26T21:29:49.202Z,99.90
2017-12-26T21:32:15.558Z,99.90
2017-12-26T21:34:41.950Z,99.90
2017-12-26T21:37:08.298Z,99.90
2017-12-26T21:39:34.637Z,99.90
2017-12-26T21:42:01.055Z,99.90
2017-12-26T21:44:27.406Z,99.90
2017-12-26T21:46:54.650Z,99.90
2017-12-26T21:49:21.010Z,99.90
2017-12-26T21:51:47.386Z,99.90
2017-12-26T21:54:13.810Z,99.90
2017-12-26T21:56:40.210Z,99.90
2017-12-26T21:59:06.622Z,99.90
2017-12-26T22:01:33.783Z,99.90
2017-12-26T22:04:00.201Z,99.90
2017-12-26T22:06:26.587Z,99.90
2017-12-26T22:08:52.938Z,99.90
2017-12-26T22:11:19.282Z,99.90
2017-12-26T22:13:45.652Z,99.90
2017-12-26T22:16:12.767Z,99.90
2017-12-26T22:18:39.157Z,99.90
2017-12-26T22:21:05.518Z,99.90
2017-12-26T22:23:31.867Z,99.90
2017-12-26T22:25:59.250Z,99.90
2017-12-26T22:28:26.333Z,99.90
2017-12-26T22:30:52.696Z,99.90
2017-12-26T22:33:19.070Z,99.90
2017-12-26T22:35:45.445Z,99.90
2017-12-26T22:38:11.787Z,99.90
2017-12-26T22:40:38.120Z,99.90
2017-12-26T22:43:04.458Z,99.90
2017-12-26T22:45:30.809Z,99.90
2017-12-26T22:47:57.162Z,99.90
2017-12-26T22:50:24.405Z,99.90
2017-12-26T22:52:51.505Z,99.90
2017-12-26T22:55:17.891Z,99.90
2017-12-26T22:57:44.384Z,99.90
2017-12-26T23:00:10.866Z,99.90
2017-12-26T23:02:37.991Z,99.90
2017-12-26T23:05:04.363Z,99.90
2017-12-26T23:07:31.850Z,99.90
2017-12-26T23:09:58.206Z,99.90
2017-12-26T23:12:24.578Z,99.90
2017-12-26T23:14:56.880Z,99.90
2017-12-26T23:17:29.530Z,99.90
2017-12-26T23:20:02.002Z,99.90
2017-12-26T23:22:28.414Z,99.90
2017-12-26T23:25:01.622Z,99.90
2017-12-26T23:27:34.810Z,99.90
2017-12-26T23:30:07.969Z,99.90
2017-12-26T23:32:40.490Z,99.90
2017-12-26T23:35:12.917Z,99.90
2017-12-26T23:37:55.167Z,99.90
2017-12-26T23:40:27.714Z,99.90
2017-12-26T23:43:00.265Z,99.90
2017-12-26T23:45:32.806Z,99.90
2017-12-26T23:48:05.102Z,99.90
2017-12-26T23:50:37.504Z,99.90
2017-12-26T23:53:09.955Z,99.90
2017-12-26T23:55:52.145Z,99.90
2017-12-26T23:58:24.682Z,99.90
